createdAt,value
2022-11-20T00:01:23.177Z,23.42
2022-11-20T00:03:54.763Z,24.40
2022-11-20T00:06:23.359Z,31.75
2022-11-20T00:08:51.163Z,26.65
2022-11-20T00:11:20.579Z,30.88
2022-11-20T00:13:49.840Z,27.17
2022-11-20T00:16:19.681Z,32.47
2022-11-20T00:18:47.683Z,29.50
2022-11-20T00:21:18.452Z,29.08
2022-11-20T00:23:47.120Z,32.67
2022-11-20T00:26:16.491Z,31.48
2022-11-20T00:28:45.605Z,28.33
2022-11-20T00:31:16.778Z,28.17
2022-11-20T00:33:45.115Z,29.77
2022-11-20T00:36:14.768Z,30.20
2022-11-20T00:38:42.348Z,32.10
2022-11-20T00:41:11.478Z,29.58
2022-11-20T00:43:39.373Z,30.15
2022-11-20T00:46:09.558Z,28.85
2022-11-20T00:48:37.100Z,30.65
2022-11-20T00:51:04.284Z,27.25
2022-11-20T00:53:32.154Z,29.70
2022-11-20T00:56:01.958Z,26.65
2022-11-20T00:58:34.722Z,23.92
2022-11-20T01:01:06.431Z,28.60
2022-11-20T01:03:40.999Z,28.65
2022-11-20T01:06:12.717Z,28.83
2022-11-20T01:08:40.289Z,28.95
2022-11-20T01:11:13.889Z,29.95
2022-11-20T01:13:42.359Z,27.27
2022-11-20T01:16:13.957Z,29.25
2022-11-20T01:18:43.960Z,32.95
2022-11-20T01:21:13.681Z,31.80
2022-11-20T01:23:42.671Z,34.30
2022-11-20T01:26:15.364Z,35.38
2022-11-20T01:28:42.693Z,32.65
2022-11-20T01:31:20.181Z,32.08
2022-11-20T01:33:50.041Z,33.00
2022-11-20T01:36:18.604Z,34.88
2022-11-20T01:38:45.827Z,32.25
2022-11-20T01:41:34.768Z,33.35
2022-11-20T01:44:02.369Z,33.13
2022-11-20T01:46:29.592Z,31.98
2022-11-20T01:49:09.817Z,34.85
2022-11-20T01:51:45.278Z,32.33
2022-11-20T01:54:25.553Z,32.97
2022-11-20T01:56:57.409Z,31.30
2022-11-20T01:59:27.272Z,29.98
2022-11-20T02:01:54.829Z,32.25
2022-11-20T02:04:23.361Z,33.13
2022-11-20T02:07:00.497Z,32.55
2022-11-20T02:09:28.975Z,35.00
2022-11-20T02:11:57.327Z,32.10
2022-11-20T02:14:25.638Z,27.48
2022-11-20T02:16:53.161Z,32.45
2022-11-20T02:19:29.558Z,32.03
2022-11-20T02:22:29.155Z,27.08
2022-11-20T02:24:56.721Z,30.20
2022-11-20T02:27:24.209Z,30.10
2022-11-20T02:30:02.203Z,34.92
2022-11-20T02:32:34.870Z,26.83
2022-11-20T02:35:31.401Z,30.15
2022-11-20T02:38:02.334Z,28.23
2022-11-20T02:40:30.371Z,30.00
2022-11-20T02:42:58.333Z,25.10
2022-11-20T02:45:26.343Z,27.23
2022-11-20T02:47:54.208Z,27.23
2022-11-20T02:50:21.920Z,28.13
2022-11-20T02:52:49.088Z,28.77
2022-11-20T02:55:16.391Z,26.35
2022-11-20T02:57:43.511Z,24.05
2022-11-20T03:00:11.364Z,21.08
2022-11-20T03:02:38.409Z,22.40
2022-11-20T03:05:05.609Z,26.10
2022-11-20T03:07:32.876Z,21.85
2022-11-20T03:10:00.104Z,21.67
2022-11-20T03:12:27.209Z,23.40
2022-11-20T03:14:54.959Z,29.63
2022-11-20T03:17:22.050Z,25.35
2022-11-20T03:19:49.128Z,25.67
2022-11-20T03:22:16.160Z,24.05
2022-11-20T03:24:43.240Z,24.88
2022-11-20T03:27:10.311Z,25.75
2022-11-20T03:29:37.507Z,26.88
2022-11-20T03:32:04.824Z,27.92
2022-11-20T03:34:31.957Z,29.48
2022-11-20T03:36:59.114Z,24.65
2022-11-20T03:39:26.287Z,26.90
2022-11-20T03:41:53.401Z,26.90
2022-11-20T03:44:23.036Z,26.50
2022-11-20T03:46:50.189Z,28.63
2022-11-20T03:49:17.354Z,25.35
2022-11-20T03:51:44.722Z,26.13
2022-11-20T03:54:12.090Z,27.08
2022-11-20T03:56:40.452Z,25.55
2022-11-20T03:59:08.224Z,26.25
2022-11-20T04:01:38.628Z,30.27
2022-11-20T04:04:06.548Z,27.75
2022-11-20T04:06:38.682Z,29.98
2022-11-20T04:09:06.885Z,28.20
2022-11-20T04:11:36.318Z,31.67
2022-11-20T04:14:07.033Z,30.10
2022-11-20T04:16:36.556Z,35.47
2022-11-20T04:19:06.191Z,30.17
2022-11-20T04:21:33.838Z,29.23
2022-11-20T04:24:01.035Z,30.85
2022-11-20T04:26:30.973Z,29.48
2022-11-20T04:28:59.019Z,27.77
2022-11-20T04:31:31.672Z,28.58
2022-11-20T04:34:06.882Z,31.23
2022-11-20T04:36:35.157Z,29.90
2022-11-20T04:39:05.574Z,30.42
2022-11-20T04:41:36.128Z,32.65
2022-11-20T04:44:05.004Z,31.75
2022-11-20T04:46:41.747Z,36.80
2022-11-20T04:49:09.806Z,32.65
2022-11-20T04:51:36.962Z,33.22
2022-11-20T04:54:04.354Z,31.17
2022-11-20T04:56:31.568Z,34.05
2022-11-20T04:59:02.213Z,37.22
2022-11-20T05:01:29.509Z,33.92
2022-11-20T05:03:56.689Z,34.75
2022-11-20T05:06:23.962Z,33.63
2022-11-20T05:08:51.401Z,37.95
2022-11-20T05:11:21.235Z,36.85
2022-11-20T05:13:49.237Z,31.75
2022-11-20T05:16:19.163Z,41.83
2022-11-20T05:21:14.488Z,36.58
2022-11-20T05:23:42.319Z,36.42
2022-11-20T05:26:17.281Z,42.45
2022-11-20T05:28:44.389Z,35.05
2022-11-20T05:31:14.402Z,37.58
2022-11-20T05:33:43.370Z,36.55
2022-11-20T05:36:11.011Z,44.60
2022-11-20T05:38:38.479Z,45.42
2022-11-20T05:41:31.650Z,37.53
2022-11-20T05:44:00.147Z,44.40
2022-11-20T05:46:28.982Z,43.13
2022-11-20T05:48:58.284Z,42.13
2022-11-20T05:51:26.355Z,39.92
2022-11-20T05:53:53.479Z,43.78
2022-11-20T05:56:22.681Z,45.20
2022-11-20T05:58:50.812Z,44.33
2022-11-20T06:01:21.240Z,46.78
2022-11-20T06:03:48.984Z,43.78
2022-11-20T06:06:17.882Z,44.60
2022-11-20T06:08:45.999Z,49.40
2022-11-20T06:11:14.751Z,45.17
2022-11-20T06:13:43.198Z,44.85
2022-11-20T06:16:11.558Z,49.03
2022-11-20T06:18:39.262Z,45.47
2022-11-20T06:21:09.002Z,50.25
2022-11-20T06:23:37.041Z,47.55
2022-11-20T06:26:12.344Z,44.30
2022-11-20T06:28:39.572Z,46.20
2022-11-20T06:31:07.721Z,43.97
2022-11-20T06:33:34.921Z,47.50
2022-11-20T06:36:07.430Z,39.75
2022-11-20T06:38:38.075Z,47.75
2022-11-20T06:41:06.789Z,48.63
2022-11-20T06:43:34.002Z,49.00
2022-11-20T06:46:01.048Z,41.22
2022-11-20T06:48:29.588Z,44.95
2022-11-20T06:50:57.552Z,45.42
2022-11-20T06:53:25.510Z,44.47
2022-11-20T06:55:53.763Z,44.08
2022-11-20T06:58:20.878Z,43.40
2022-11-20T07:00:48.098Z,41.33
2022-11-20T07:03:15.361Z,42.45
2022-11-20T07:05:42.558Z,40.30
2022-11-20T07:08:10.844Z,40.72
2022-11-20T07:10:38.002Z,39.28
2022-11-20T07:13:05.150Z,40.13
2022-11-20T07:15:32.178Z,41.22
2022-11-20T07:18:02.794Z,40.60
2022-11-20T07:20:30.088Z,40.15
2022-11-20T07:22:58.358Z,42.50
2022-11-20T07:25:27.049Z,40.80
2022-11-20T07:27:54.291Z,39.63
2022-11-20T07:30:21.985Z,42.20
2022-11-20T07:32:54.596Z,40.95
2022-11-20T07:35:22.171Z,41.60
2022-11-20T07:37:49.801Z,40.70
2022-11-20T07:40:18.078Z,43.15
2022-11-20T07:42:56.429Z,43.72
2022-11-20T07:45:25.761Z,43.15
2022-11-20T07:47:52.884Z,42.97
2022-11-20T07:50:21.040Z,38.78
2022-11-20T07:52:48.778Z,43.25
2022-11-20T07:55:16.461Z,42.17
2022-11-20T07:57:43.802Z,40.22
2022-11-20T08:00:12.575Z,44.83
2022-11-20T08:02:41.420Z,44.95
2022-11-20T08:05:12.434Z,45.78
2022-11-20T08:07:45.372Z,42.25
2022-11-20T08:10:16.548Z,46.58
2022-11-20T08:13:10.003Z,44.13
2022-11-20T08:15:38.604Z,46.47
2022-11-20T08:21:03.243Z,44.95
2022-11-20T08:23:30.524Z,39.85
2022-11-20T08:25:57.629Z,40.25
2022-11-20T08:28:24.760Z,43.05
2022-11-20T08:30:52.012Z,44.88
2022-11-20T08:33:19.615Z,45.90
2022-11-20T08:35:47.134Z,43.13
2022-11-20T08:38:14.403Z,45.88
2022-11-20T08:40:41.569Z,46.08
2022-11-20T08:43:08.783Z,47.05
2022-11-20T08:45:36.003Z,44.88
2022-11-20T08:48:04.635Z,45.42
2022-11-20T08:50:33.631Z,50.63
2022-11-20T08:53:05.973Z,50.35
2022-11-20T08:55:33.431Z,50.42
2022-11-20T08:58:05.049Z,51.58
2022-11-20T09:00:33.618Z,48.15
2022-11-20T09:03:02.410Z,44.70
2022-11-20T09:05:29.921Z,48.33
2022-11-20T09:07:58.592Z,46.35
2022-11-20T09:10:26.341Z,53.40
2022-11-20T09:12:54.920Z,43.50
2022-11-20T09:15:22.763Z,42.40
2022-11-20T09:17:57.536Z,43.88
2022-11-20T09:20:25.165Z,46.38
2022-11-20T09:22:52.613Z,43.75
2022-11-20T09:25:20.059Z,44.38
2022-11-20T09:27:47.452Z,47.28
2022-11-20T09:30:16.482Z,49.03
2022-11-20T09:32:44.357Z,43.05
2022-11-20T09:35:11.979Z,45.20
2022-11-20T09:37:39.605Z,40.90
2022-11-20T09:40:07.885Z,45.83
2022-11-20T09:43:20.244Z,45.83
2022-11-20T09:46:10.186Z,44.10
2022-11-20T09:49:19.584Z,39.88
2022-11-20T09:52:00.279Z,42.42
2022-11-20T09:54:40.846Z,40.17
2022-11-20T09:57:20.105Z,43.83
2022-11-20T09:59:52.422Z,39.40
2022-11-20T10:02:25.682Z,38.67
2022-11-20T10:05:24.404Z,38.85
2022-11-20T10:08:03.542Z,39.13
2022-11-20T10:10:41.118Z,36.50
2022-11-20T10:13:16.662Z,39.50
2022-11-20T10:16:05.040Z,38.92
2022-11-20T10:19:07.283Z,40.95
2022-11-20T10:21:57.325Z,38.10
2022-11-20T10:24:44.698Z,39.08
2022-11-20T10:27:30.183Z,40.10
2022-11-20T10:30:15.964Z,38.10
2022-11-20T10:33:04.904Z,40.08
2022-11-20T10:36:04.501Z,39.65
2022-11-20T10:38:55.900Z,38.72
2022-11-20T10:41:33.133Z,41.97
2022-11-20T10:44:40.422Z,39.70
2022-11-20T10:47:18.297Z,38.13
2022-11-20T10:49:52.482Z,39.33
2022-11-20T10:52:38.093Z,38.90
2022-11-20T10:55:19.922Z,39.08
2022-11-20T10:58:09.091Z,38.45
2022-11-20T11:00:36.541Z,37.78
2022-11-20T11:03:04.498Z,38.88
2022-11-20T11:05:43.817Z,36.67
2022-11-20T11:08:20.454Z,34.37
2022-11-20T11:10:58.755Z,39.30
2022-11-20T11:13:28.905Z,36.92
2022-11-20T11:18:34.153Z,32.95
2022-11-20T11:21:04.343Z,32.22
2022-11-20T11:26:19.181Z,35.30
2022-11-20T11:29:00.759Z,38.88
2022-11-20T11:31:30.709Z,37.35
2022-11-20T11:34:09.339Z,34.67
2022-11-20T11:36:37.085Z,36.47
2022-11-20T11:39:07.013Z,36.72
2022-11-20T11:41:38.690Z,37.15
2022-11-20T11:44:59.712Z,34.33
2022-11-20T11:47:32.323Z,37.70
2022-11-20T11:50:24.423Z,35.30
2022-11-20T11:53:20.617Z,37.45
2022-11-20T11:56:15.009Z,35.50
2022-11-20T11:58:49.655Z,36.10
2022-11-20T12:01:34.055Z,36.10
2022-11-20T12:04:07.119Z,38.55
2022-11-20T12:06:39.574Z,33.63
2022-11-20T12:09:11.241Z,32.78
2022-11-20T12:11:54.969Z,35.20
2022-11-20T12:14:38.144Z,32.58
2022-11-20T12:17:05.529Z,34.50
2022-11-20T12:19:35.384Z,34.10
2022-11-20T12:22:35.777Z,32.85
2022-11-20T12:25:13.131Z,33.47
2022-11-20T12:27:57.462Z,31.15
2022-11-20T12:30:25.932Z,32.05
2022-11-20T12:33:19.250Z,35.00
2022-11-20T12:36:07.729Z,30.35
2022-11-20T12:38:37.621Z,32.72
2022-11-20T12:41:47.521Z,35.17
2022-11-20T12:45:11.681Z,33.50
2022-11-20T12:48:09.771Z,32.13
2022-11-20T12:51:17.903Z,35.60
2022-11-20T12:54:05.520Z,33.38
2022-11-20T12:56:51.324Z,30.63
2022-11-20T12:59:29.914Z,30.60
2022-11-20T13:02:18.282Z,36.17
2022-11-20T13:05:03.387Z,31.98
2022-11-20T13:07:31.839Z,35.80
2022-11-20T13:10:00.400Z,35.05
2022-11-20T13:12:49.572Z,35.65
2022-11-20T13:15:35.920Z,35.50
2022-11-20T13:18:05.443Z,35.78
2022-11-20T13:20:35.611Z,36.05
2022-11-20T13:25:49.143Z,36.97
2022-11-20T13:28:16.262Z,34.35
2022-11-20T13:30:55.218Z,37.17
2022-11-20T13:33:25.526Z,35.88
2022-11-20T13:35:59.599Z,39.55
2022-11-20T13:38:31.259Z,36.60
2022-11-20T13:41:22.208Z,37.55
2022-11-20T13:43:49.597Z,40.20
2022-11-20T13:46:17.080Z,35.97
2022-11-20T13:48:46.999Z,38.25
2022-11-20T13:51:54.374Z,35.03
2022-11-20T13:54:44.959Z,36.65
2022-11-20T13:57:45.733Z,38.97
2022-11-20T14:00:21.288Z,36.88
2022-11-20T14:02:59.219Z,37.95
2022-11-20T14:05:26.395Z,35.90
2022-11-20T14:07:55.239Z,37.80
2022-11-20T14:10:31.082Z,42.42
2022-11-20T14:12:59.349Z,39.38
2022-11-20T14:15:31.083Z,37.03
2022-11-20T14:17:59.279Z,37.15
2022-11-20T14:20:30.178Z,40.13
2022-11-20T14:22:57.407Z,39.05
2022-11-20T14:25:32.121Z,39.05
2022-11-20T14:28:01.482Z,39.28
2022-11-20T14:30:38.699Z,39.25
2022-11-20T14:33:06.401Z,39.97
2022-11-20T14:35:41.876Z,37.45
2022-11-20T14:38:13.851Z,39.35
2022-11-20T14:40:41.160Z,38.50
2022-11-20T14:43:26.702Z,38.53
2022-11-20T14:45:59.314Z,39.47
2022-11-20T14:48:38.413Z,39.95
2022-11-20T14:51:05.589Z,37.25
2022-11-20T14:53:32.709Z,40.50
2022-11-20T14:56:01.979Z,38.97
2022-11-20T14:58:34.631Z,37.27
2022-11-20T15:01:08.984Z,38.10
2022-11-20T15:03:41.602Z,38.13
2022-11-20T15:06:13.002Z,38.83
2022-11-20T15:08:40.212Z,40.10
2022-11-20T15:11:20.981Z,37.42
2022-11-20T15:13:48.085Z,37.47
2022-11-20T15:16:20.816Z,39.03
2022-11-20T15:18:48.579Z,34.35
2022-11-20T15:21:17.970Z,33.20
2022-11-20T15:23:45.494Z,35.88
2022-11-20T15:26:19.802Z,32.85
2022-11-20T15:28:51.287Z,36.08
2022-11-20T15:31:24.120Z,35.17
2022-11-20T15:33:51.487Z,40.50
2022-11-20T15:36:18.850Z,37.70
2022-11-20T15:38:46.080Z,39.15
2022-11-20T15:41:13.503Z,38.95
2022-11-20T15:43:40.631Z,34.25
2022-11-20T15:46:14.499Z,35.28
2022-11-20T15:48:48.209Z,37.53
2022-11-20T15:51:28.224Z,41.90
2022-11-20T15:53:56.929Z,38.13
2022-11-20T15:56:24.129Z,39.55
2022-11-20T15:58:51.822Z,40.22
2022-11-20T16:01:21.922Z,38.63
2022-11-20T16:06:20.044Z,39.92
2022-11-20T16:08:47.310Z,39.83
2022-11-20T16:11:16.135Z,41.00
2022-11-20T16:14:03.214Z,39.47
2022-11-20T16:16:39.649Z,36.15
2022-11-20T16:19:07.047Z,38.10
2022-11-20T16:21:35.533Z,36.25
2022-11-20T16:24:05.701Z,41.50
2022-11-20T16:26:34.503Z,41.05
2022-11-20T16:29:03.822Z,37.78
2022-11-20T16:31:31.371Z,37.13
2022-11-20T16:34:01.441Z,40.97
2022-11-20T16:36:31.129Z,39.13
2022-11-20T16:39:01.367Z,37.67
2022-11-20T16:41:31.474Z,41.28
2022-11-20T16:46:29.914Z,36.80
2022-11-20T16:49:11.538Z,35.17
2022-11-20T16:51:38.841Z,37.72
2022-11-20T16:54:07.334Z,36.47
2022-11-20T16:56:34.442Z,37.75
2022-11-20T16:59:02.880Z,40.38
2022-11-20T17:01:31.582Z,36.28
2022-11-20T17:04:04.813Z,36.90
2022-11-20T17:06:37.733Z,35.70
2022-11-20T17:09:05.520Z,36.58
2022-11-20T17:11:33.763Z,35.47
2022-11-20T17:14:01.381Z,38.40
2022-11-20T17:16:28.559Z,34.53
2022-11-20T17:19:02.498Z,36.20
2022-11-20T17:21:31.579Z,37.55
2022-11-20T17:24:06.205Z,37.47
2022-11-20T17:26:35.579Z,36.45
2022-11-20T17:29:06.291Z,36.47
2022-11-20T17:31:35.190Z,38.60
2022-11-20T17:34:02.839Z,38.47
2022-11-20T17:36:31.039Z,39.22
2022-11-20T17:38:59.242Z,38.33
2022-11-20T17:41:29.484Z,38.00
2022-11-20T17:44:01.098Z,39.85
2022-11-20T17:46:32.964Z,40.30
2022-11-20T17:49:01.040Z,42.30
2022-11-20T17:51:30.963Z,37.67
2022-11-20T17:54:03.896Z,40.63
2022-11-20T17:56:53.401Z,40.25
2022-11-20T17:59:21.240Z,41.80
2022-11-20T18:01:48.588Z,39.28
2022-11-20T18:04:16.918Z,42.50
2022-11-20T18:06:44.586Z,39.78
2022-11-20T18:09:12.460Z,39.15
2022-11-20T18:11:41.528Z,43.60
2022-11-20T18:14:49.265Z,40.60
2022-11-20T18:17:16.805Z,37.83
2022-11-20T18:20:01.176Z,44.85
2022-11-20T18:22:33.450Z,44.15
2022-11-20T18:25:00.769Z,40.28
2022-11-20T18:27:27.883Z,46.22
2022-11-20T18:29:55.052Z,42.92
2022-11-20T18:32:23.006Z,43.85
2022-11-20T18:34:51.589Z,42.28
2022-11-20T18:37:19.107Z,43.47
2022-11-20T18:39:46.662Z,42.15
2022-11-20T18:42:34.966Z,44.90
2022-11-20T18:45:04.631Z,47.30
2022-11-20T18:47:36.425Z,49.30
2022-11-20T18:50:05.303Z,44.40
2022-11-20T18:52:48.043Z,45.40
2022-11-20T18:55:15.316Z,47.78
2022-11-20T18:57:42.613Z,46.15
2022-11-20T19:00:10.620Z,47.30
2022-11-20T19:02:42.064Z,45.88
2022-11-20T19:05:11.933Z,43.58
2022-11-20T19:07:39.278Z,40.42
2022-11-20T19:10:07.337Z,41.47
2022-11-20T19:12:34.454Z,43.00
2022-11-20T19:15:01.609Z,42.17
2022-11-20T19:17:28.832Z,42.58
2022-11-20T19:19:56.103Z,42.47
2022-11-20T19:22:23.980Z,48.80
2022-11-20T19:24:51.089Z,44.47
2022-11-20T19:27:18.282Z,44.47
2022-11-20T19:29:45.450Z,47.65
2022-11-20T19:32:12.645Z,49.13
2022-11-20T19:34:39.968Z,43.90
2022-11-20T19:37:07.256Z,48.83
2022-11-20T19:39:36.394Z,48.22
2022-11-20T19:42:03.907Z,47.05
2022-11-20T19:44:32.471Z,43.33
2022-11-20T19:46:59.819Z,48.45
2022-11-20T19:49:27.061Z,50.03
2022-11-20T19:51:54.295Z,46.60
2022-11-20T19:54:21.480Z,44.92
2022-11-20T19:56:49.813Z,46.15
2022-11-20T19:59:17.014Z,49.33
2022-11-20T20:01:44.524Z,47.20
2022-11-20T20:04:11.750Z,50.13
2022-11-20T20:06:40.204Z,44.42
2022-11-20T20:09:10.403Z,47.25
2022-11-20T20:14:07.883Z,45.28
2022-11-20T20:16:35.928Z,45.58
2022-11-20T20:19:05.728Z,48.42
2022-11-20T20:21:35.272Z,46.60
2022-11-20T20:24:02.813Z,46.65
2022-11-20T20:26:31.597Z,46.95
2022-11-20T20:28:59.438Z,46.35
2022-11-20T20:31:29.289Z,47.13
2022-11-20T20:33:57.440Z,50.05
2022-11-20T20:36:25.653Z,47.40
2022-11-20T20:38:54.146Z,49.42
2022-11-20T20:41:23.452Z,52.05
2022-11-20T20:44:09.882Z,47.07
2022-11-20T20:46:36.960Z,49.70
2022-11-20T20:49:04.357Z,50.10
2022-11-20T20:51:31.450Z,48.92
2022-11-20T20:53:58.769Z,50.72
2022-11-20T20:56:26.262Z,48.42
2022-11-20T20:58:53.430Z,50.97
2022-11-20T21:01:21.579Z,50.35
2022-11-20T21:03:48.949Z,45.08
2022-11-20T21:06:16.105Z,52.67
2022-11-20T21:08:44.574Z,52.08
2022-11-20T21:11:14.769Z,50.95
2022-11-20T21:13:43.560Z,52.10
2022-11-20T21:16:12.290Z,49.70
2022-11-20T21:18:39.494Z,49.03
2022-11-20T21:21:26.532Z,47.80
2022-11-20T21:23:53.918Z,47.58
2022-11-20T21:26:21.698Z,52.33
2022-11-20T21:28:50.128Z,48.90
2022-11-20T21:31:22.249Z,47.72
2022-11-20T21:33:51.864Z,48.53
2022-11-20T21:36:21.721Z,48.45
2022-11-20T21:38:49.334Z,47.53
2022-11-20T21:41:16.581Z,45.80
2022-11-20T21:43:44.415Z,50.22
2022-11-20T21:46:16.883Z,45.97
2022-11-20T21:48:45.968Z,52.03
2022-11-20T21:51:18.685Z,50.85
2022-11-20T21:53:47.519Z,48.40
2022-11-20T21:56:20.290Z,51.00
2022-11-20T21:58:48.971Z,50.20
2022-11-20T22:01:17.659Z,46.75
2022-11-20T22:03:57.363Z,52.70
2022-11-20T22:06:27.274Z,53.65
2022-11-20T22:08:54.490Z,52.47
2022-11-20T22:11:22.461Z,52.45
2022-11-20T22:14:08.540Z,47.25
2022-11-20T22:16:37.351Z,52.17
2022-11-20T22:19:05.170Z,47.40
2022-11-20T22:21:33.251Z,54.78
2022-11-20T22:24:00.676Z,50.13
2022-11-20T22:26:30.287Z,50.90
2022-11-20T22:28:58.952Z,52.92
2022-11-20T22:31:28.392Z,51.72
2022-11-20T22:33:56.123Z,51.53
2022-11-20T22:36:25.742Z,51.00
2022-11-20T22:38:53.042Z,50.40
2022-11-20T22:41:22.121Z,50.60
2022-11-20T22:43:55.025Z,52.63
2022-11-20T22:46:22.619Z,52.78
2022-11-20T22:48:52.304Z,52.15
2022-11-20T22:51:40.648Z,58.45
2022-11-20T22:54:10.718Z,51.67
2022-11-20T22:56:37.902Z,51.45
2022-11-20T22:59:05.395Z,55.55
2022-11-20T23:01:34.696Z,51.78
2022-11-20T23:04:04.334Z,49.03
2022-11-20T23:06:37.022Z,49.85
2022-11-20T23:09:06.246Z,54.90
2022-11-20T23:11:35.346Z,54.05
2022-11-20T23:14:13.044Z,50.27
2022-11-20T23:16:40.400Z,54.95
2022-11-20T23:19:10.802Z,55.78
2022-11-20T23:21:39.961Z,55.05
2022-11-20T23:24:08.113Z,55.40
2022-11-20T23:26:37.793Z,53.97
2022-11-20T23:29:06.048Z,57.05
2022-11-20T23:31:35.082Z,51.15
2022-11-20T23:34:02.483Z,55.58
2022-11-20T23:36:29.772Z,59.50
2022-11-20T23:38:57.117Z,58.50
2022-11-20T23:41:24.366Z,56.97
2022-11-20T23:43:52.290Z,60.15
2022-11-20T23:46:19.480Z,58.17
2022-11-20T23:48:46.629Z,56.20
2022-11-20T23:51:14.664Z,59.13
2022-11-20T23:53:42.001Z,56.35
2022-11-20T23:56:10.753Z,58.72
2022-11-20T23:58:38.937Z,55.78
